Time;durP1;ratioP1;P1;durP2;ratioP2;P2;SDS_P1;SDS_P2;PMS_P1;PMS_P2;Temp;Humidity;BMP_temperature;BMP_pressure;BME280_temperature;BME280_humidity;BME280_pressure;Samples;Min_cycle;Max_cycle;Signal;HPM_P1;HPM_P2
2021/08/02 00:00:27;;;;;;;1.75;1.65;;;;;;;;;;5043094;28;20186;-80
2021/08/02 00:02:53;;;;;;;3.58;2.15;;;;;;;;;;5045735;28;20181;-83
2021/08/02 00:05:21;;;;;;;3.30;2.47;;;;;;;;;;5045292;28;20185;-83
2021/08/02 00:07:52;;;;;;;2.42;1.58;;;;;;;;;;5043213;28;20463;-83
2021/08/02 00:10:18;;;;;;;2.05;1.80;;;;;;;;;;5039774;28;20204;-82
2021/08/02 00:12:50;;;;;;;2.73;1.67;;;;;;;;;;5042763;28;20185;-84
2021/08/02 00:15:17;;;;;;;2.10;1.20;;;;;;;;;;5044726;28;20440;-84
2021/08/02 00:17:44;;;;;;;1.70;1.60;;;;;;;;;;5042916;28;20289;-81
2021/08/02 00:20:15;;;;;;;2.70;1.98;;;;;;;;;;5045798;28;20188;-83
2021/08/02 00:22:41;;;;;;;3.63;2.00;;;;;;;;;;5043357;28;20192;-83
2021/08/02 00:25:08;;;;;;;2.08;1.60;;;;;;;;;;5045429;28;20192;-83
2021/08/02 00:27:33;;;;;;;2.35;1.60;;;;;;;;;;5043461;28;20216;-83
2021/08/02 00:30:00;;;;;;;3.33;1.63;;;;;;;;;;5044355;28;20178;-83
2021/08/02 00:32:26;;;;;;;3.70;1.98;;;;;;;;;;5044871;28;20482;-83
2021/08/02 00:34:52;;;;;;;2.00;1.80;;;;;;;;;;5044858;28;20193;-83
2021/08/02 00:37:20;;;;;;;3.30;1.80;;;;;;;;;;5044520;28;20178;-84
2021/08/02 00:39:46;;;;;;;2.40;2.00;;;;;;;;;;5044119;28;20931;-83
2021/08/02 00:42:19;;;;;;;7.05;2.20;;;;;;;;;;5042500;28;20200;-83
2021/08/02 00:45:03;;;;;;;1.80;1.58;;;;;;;;;;5039056;28;20190;-84
2021/08/02 00:47:46;;;;;;;1.80;1.65;;;;;;;;;;5042337;28;20219;-83
2021/08/02 00:50:23;;;;;;;2.95;1.65;;;;;;;;;;5030348;28;20193;-82
2021/08/02 00:53:00;;;;;;;4.28;2.30;;;;;;;;;;5042780;28;20188;-83
2021/08/02 00:55:28;;;;;;;3.55;1.70;;;;;;;;;;5035631;28;20167;-83
2021/08/02 00:57:55;;;;;;;2.40;2.20;;;;;;;;;;5052283;28;20221;-83
2021/08/02 01:00:22;;;;;;;2.28;1.60;;;;;;;;;;5065770;28;20187;-83
2021/08/02 01:02:49;;;;;;;3.00;1.60;;;;;;;;;;5036975;28;20212;-83
2021/08/02 01:05:15;;;;;;;2.30;2.10;;;;;;;;;;5043999;28;20608;-83
2021/08/02 01:07:43;;;;;;;2.83;1.75;;;;;;;;;;5042051;28;20259;-83
2021/08/02 01:10:11;;;;;;;2.50;2.00;;;;;;;;;;5045130;28;20174;-83
2021/08/02 01:12:37;;;;;;;3.75;2.10;;;;;;;;;;5041997;28;20257;-83
2021/08/02 01:15:03;;;;;;;3.30;1.77;;;;;;;;;;5041763;28;20173;-83
2021/08/02 01:17:29;;;;;;;1.92;1.20;;;;;;;;;;5045389;28;20721;-82
2021/08/02 01:19:56;;;;;;;5.00;2.63;;;;;;;;;;5045521;28;20193;-84
2021/08/02 01:22:26;;;;;;;4.05;1.70;;;;;;;;;;5023317;28;20181;-83
2021/08/02 01:24:52;;;;;;;3.00;1.90;;;;;;;;;;5038767;28;20174;-84
2021/08/02 01:27:18;;;;;;;3.60;2.10;;;;;;;;;;5036640;28;20300;-83
2021/08/02 01:30:02;;;;;;;4.40;1.87;;;;;;;;;;5035573;28;20440;-83
2021/08/02 01:32:29;;;;;;;4.95;1.65;;;;;;;;;;5045348;28;20911;-83
2021/08/02 01:34:55;;;;;;;2.17;1.70;;;;;;;;;;5044395;28;20194;-83
2021/08/02 01:37:21;;;;;;;2.70;2.05;;;;;;;;;;5046783;28;20213;-83
2021/08/02 01:39:52;;;;;;;2.95;2.10;;;;;;;;;;5046164;28;20799;-83
2021/08/02 01:42:18;;;;;;;3.75;2.10;;;;;;;;;;5039667;28;20229;-84
2021/08/02 01:44:44;;;;;;;9.02;2.67;;;;;;;;;;5038892;28;20181;-83
2021/08/02 01:47:28;;;;;;;2.75;2.40;;;;;;;;;;5047204;28;20258;-82
2021/08/02 01:49:59;;;;;;;1.90;1.60;;;;;;;;;;5031176;28;20201;-83
2021/08/02 01:52:35;;;;;;;2.35;1.88;;;;;;;;;;5042329;28;20170;-84
2021/08/02 01:55:07;;;;;;;4.53;2.13;;;;;;;;;;5061435;28;20272;-82
2021/08/02 01:57:42;;;;;;;2.05;1.85;;;;;;;;;;5044723;28;20197;-83
2021/08/02 02:00:08;;;;;;;2.95;1.80;;;;;;;;;;5047271;28;20181;-84
2021/08/02 02:02:35;;;;;;;2.20;1.98;;;;;;;;;;5045322;28;20208;-83
2021/08/02 02:05:10;;;;;;;2.88;1.90;;;;;;;;;;5048963;28;20211;-82
2021/08/02 02:07:39;;;;;;;2.08;1.50;;;;;;;;;;5046140;28;20201;-83
2021/08/02 02:10:05;;;;;;;5.82;1.90;;;;;;;;;;5046059;28;20176;-83
2021/08/02 02:12:31;;;;;;;1.85;1.70;;;;;;;;;;5045556;28;20205;-82
2021/08/02 02:14:58;;;;;;;4.30;2.33;;;;;;;;;;5042555;28;20240;-84
2021/08/02 02:17:25;;;;;;;3.03;2.28;;;;;;;;;;5037000;28;20487;-83
2021/08/02 02:19:52;;;;;;;4.30;2.15;;;;;;;;;;5047663;28;20586;-83
2021/08/02 02:22:22;;;;;;;2.58;2.38;;;;;;;;;;5045048;28;20182;-83
2021/08/02 02:24:49;;;;;;;1.90;1.58;;;;;;;;;;5047589;28;20189;-83
2021/08/02 02:27:15;;;;;;;1.83;1.60;;;;;;;;;;5039316;28;20206;-83
2021/08/02 02:29:42;;;;;;;3.20;2.33;;;;;;;;;;5035367;28;20273;-83
2021/08/02 02:32:08;;;;;;;2.67;1.70;;;;;;;;;;5047558;28;20184;-83
2021/08/02 02:34:36;;;;;;;3.13;2.80;;;;;;;;;;5029918;28;20796;-83
2021/08/02 02:37:04;;;;;;;2.63;2.42;;;;;;;;;;5033535;28;20529;-84
2021/08/02 02:39:30;;;;;;;1.80;1.70;;;;;;;;;;5036010;28;20186;-83
2021/08/02 02:41:56;;;;;;;2.10;2.00;;;;;;;;;;5037075;28;20657;-82
2021/08/02 02:44:23;;;;;;;1.92;1.73;;;;;;;;;;5044905;28;20184;-83
2021/08/02 02:46:50;;;;;;;1.95;1.75;;;;;;;;;;5046073;28;20526;-83
2021/08/02 02:49:17;;;;;;;1.63;1.52;;;;;;;;;;5046615;28;20597;-83
2021/08/02 02:51:43;;;;;;;2.50;2.05;;;;;;;;;;5037749;28;20185;-82
2021/08/02 02:54:10;;;;;;;2.10;1.38;;;;;;;;;;5042798;28;20182;-83
2021/08/02 02:56:37;;;;;;;2.58;2.38;;;;;;;;;;5043406;28;20199;-83
2021/08/02 02:59:04;;;;;;;3.20;2.22;;;;;;;;;;5031042;28;20192;-83
2021/08/02 03:01:39;;;;;;;2.50;2.13;;;;;;;;;;5043695;28;20240;-83
2021/08/02 03:04:06;;;;;;;2.08;1.88;;;;;;;;;;5045084;28;20650;-84
2021/08/02 03:06:33;;;;;;;2.95;1.90;;;;;;;;;;5036049;28;20218;-82
2021/08/02 03:08:59;;;;;;;1.80;1.70;;;;;;;;;;5039917;28;20213;-83
2021/08/02 03:11:25;;;;;;;1.85;1.60;;;;;;;;;;5045259;28;20184;-82
2021/08/02 03:13:52;;;;;;;2.50;1.50;;;;;;;;;;5045397;28;20626;-83
2021/08/02 03:16:23;;;;;;;3.42;1.90;;;;;;;;;;5028936;28;20424;-84
2021/08/02 03:18:49;;;;;;;2.85;2.00;;;;;;;;;;5044829;28;20194;-82
2021/08/02 03:21:15;;;;;;;2.55;1.70;;;;;;;;;;5043608;28;20282;-83
2021/08/02 03:23:48;;;;;;;3.83;2.30;;;;;;;;;;5043691;28;20183;-84
2021/08/02 03:26:17;;;;;;;6.50;1.92;;;;;;;;;;5046700;28;20181;-83
2021/08/02 03:29:02;;;;;;;3.42;1.80;;;;;;;;;;5045151;28;20228;-83
2021/08/02 03:31:34;;;;;;;2.20;1.70;;;;;;;;;;5041077;28;20183;-83
2021/08/02 03:34:01;;;;;;;2.13;1.70;;;;;;;;;;5039140;28;20237;-83
2021/08/02 03:36:28;;;;;;;4.13;2.20;;;;;;;;;;5042159;28;20729;-84
2021/08/02 03:38:54;;;;;;;3.85;1.83;;;;;;;;;;5043017;28;20347;-83
2021/08/02 03:41:21;;;;;;;2.60;1.95;;;;;;;;;;5044938;28;20240;-83
2021/08/02 03:43:48;;;;;;;2.42;2.22;;;;;;;;;;5028904;28;20540;-80
2021/08/02 03:46:14;;;;;;;3.17;2.10;;;;;;;;;;5044531;28;20201;-84
2021/08/02 03:48:41;;;;;;;2.22;2.03;;;;;;;;;;5034961;28;20210;-83
2021/08/02 03:51:07;;;;;;;1.73;1.63;;;;;;;;;;5037350;28;20192;-83
2021/08/02 03:53:40;;;;;;;3.45;1.90;;;;;;;;;;5043573;28;20185;-83
2021/08/02 03:56:07;;;;;;;2.08;1.65;;;;;;;;;;5027305;28;20178;-84
2021/08/02 03:58:33;;;;;;;2.38;2.10;;;;;;;;;;5026817;28;20175;-83
2021/08/02 04:00:59;;;;;;;2.88;1.73;;;;;;;;;;5039877;28;20182;-84
2021/08/02 04:03:25;;;;;;;2.10;1.90;;;;;;;;;;5043367;28;20268;-83
2021/08/02 04:05:54;;;;;;;3.50;1.98;;;;;;;;;;5042631;28;20437;-83
2021/08/02 04:08:20;;;;;;;3.45;2.03;;;;;;;;;;5031911;28;20212;-83
2021/08/02 04:10:46;;;;;;;3.58;2.25;;;;;;;;;;5042994;28;20198;-83
2021/08/02 04:13:15;;;;;;;6.97;2.20;;;;;;;;;;5031261;28;20788;-83
2021/08/02 04:15:41;;;;;;;2.38;1.60;;;;;;;;;;5035112;28;20369;-83
2021/08/02 04:18:07;;;;;;;2.80;1.77;;;;;;;;;;5031877;28;20476;-83
2021/08/02 04:20:33;;;;;;;3.58;3.28;;;;;;;;;;5032204;28;20498;-82
2021/08/02 04:22:59;;;;;;;3.03;2.10;;;;;;;;;;5043338;28;20245;-83
2021/08/02 04:25:25;;;;;;;2.83;1.87;;;;;;;;;;5043920;28;20424;-84
2021/08/02 04:27:51;;;;;;;2.30;2.10;;;;;;;;;;5033234;28;20460;-83
2021/08/02 04:30:17;;;;;;;2.70;2.25;;;;;;;;;;5040615;28;20681;-83
2021/08/02 04:32:44;;;;;;;2.35;1.60;;;;;;;;;;5046330;28;20185;-84
2021/08/02 04:35:10;;;;;;;4.68;2.25;;;;;;;;;;5038030;28;20548;-83
2021/08/02 04:37:36;;;;;;;2.35;2.15;;;;;;;;;;5040500;28;20186;-83
2021/08/02 04:40:03;;;;;;;2.92;2.10;;;;;;;;;;5046510;28;20185;-83
2021/08/02 04:42:33;;;;;;;4.97;2.53;;;;;;;;;;5044030;28;20196;-84
2021/08/02 04:44:59;;;;;;;3.55;2.08;;;;;;;;;;5041091;28;20193;-83
2021/08/02 04:47:25;;;;;;;2.63;1.90;;;;;;;;;;5034358;28;20201;-83
2021/08/02 04:49:50;;;;;;;3.93;2.00;;;;;;;;;;5044140;28;20425;-83
2021/08/02 04:52:16;;;;;;;2.70;1.90;;;;;;;;;;5026827;28;20433;-83
2021/08/02 04:54:42;;;;;;;3.47;2.25;;;;;;;;;;5034095;28;20500;-82
2021/08/02 04:57:08;;;;;;;6.10;2.10;;;;;;;;;;5038837;28;20212;-84
2021/08/02 04:59:34;;;;;;;2.30;2.10;;;;;;;;;;5042629;28;20499;-83
2021/08/02 05:02:00;;;;;;;2.20;1.87;;;;;;;;;;5045417;28;20185;-83
2021/08/02 05:04:26;;;;;;;3.70;2.30;;;;;;;;;;5026751;28;20485;-83
2021/08/02 05:06:52;;;;;;;2.23;1.80;;;;;;;;;;5048325;28;20432;-83
2021/08/02 05:09:18;;;;;;;3.07;2.87;;;;;;;;;;5033514;28;20440;-82
2021/08/02 05:11:44;;;;;;;3.30;2.13;;;;;;;;;;5039817;28;20438;-83
2021/08/02 05:14:10;;;;;;;2.65;1.80;;;;;;;;;;5044669;28;20437;-84
2021/08/02 05:16:36;;;;;;;3.97;3.10;;;;;;;;;;5030977;28;20178;-83
2021/08/02 05:19:02;;;;;;;2.35;2.10;;;;;;;;;;5047929;28;20432;-83
2021/08/02 05:21:28;;;;;;;2.47;2.10;;;;;;;;;;5045944;28;20193;-84
2021/08/02 05:23:54;;;;;;;2.95;1.83;;;;;;;;;;5044075;28;20197;-83
2021/08/02 05:26:20;;;;;;;2.30;2.10;;;;;;;;;;5035229;28;20181;-83
2021/08/02 05:28:46;;;;;;;3.17;2.07;;;;;;;;;;5030278;28;24643;-83
2021/08/02 05:31:12;;;;;;;3.77;2.20;;;;;;;;;;5032939;28;20417;-84
2021/08/02 05:33:38;;;;;;;2.45;1.95;;;;;;;;;;5036003;28;20425;-83
2021/08/02 05:36:04;;;;;;;4.23;2.03;;;;;;;;;;5041485;28;20189;-83
2021/08/02 05:38:31;;;;;;;2.25;2.05;;;;;;;;;;5048750;28;20435;-82
2021/08/02 05:40:58;;;;;;;2.97;2.20;;;;;;;;;;5032069;28;20215;-83
2021/08/02 05:43:25;;;;;;;3.33;2.30;;;;;;;;;;5031271;28;20178;-83
2021/08/02 05:45:51;;;;;;;2.30;2.03;;;;;;;;;;5043249;28;20258;-83
2021/08/02 05:48:17;;;;;;;3.78;2.92;;;;;;;;;;5039121;28;20217;-84
2021/08/02 05:50:43;;;;;;;3.67;2.00;;;;;;;;;;5036004;28;20176;-84
2021/08/02 05:53:09;;;;;;;2.83;2.07;;;;;;;;;;5033079;28;20586;-83
2021/08/02 05:55:35;;;;;;;3.17;2.10;;;;;;;;;;5046964;28;20408;-82
2021/08/02 05:58:01;;;;;;;2.30;1.57;;;;;;;;;;5048655;28;20431;-84
2021/08/02 06:00:27;;;;;;;2.47;2.20;;;;;;;;;;5038583;28;20532;-84
2021/08/02 06:02:53;;;;;;;2.45;2.25;;;;;;;;;;5039973;28;20459;-83
2021/08/02 06:05:19;;;;;;;2.77;2.10;;;;;;;;;;5044842;28;20186;-83
2021/08/02 06:07:45;;;;;;;3.10;2.20;;;;;;;;;;5045108;28;20460;-83
2021/08/02 06:10:11;;;;;;;2.50;2.17;;;;;;;;;;5032644;28;20443;-81
2021/08/02 06:12:37;;;;;;;4.20;1.95;;;;;;;;;;5037442;28;20178;-84
2021/08/02 06:15:04;;;;;;;2.50;2.17;;;;;;;;;;5033515;28;20190;-84
2021/08/02 06:17:30;;;;;;;2.28;1.75;;;;;;;;;;5036609;28;20229;-84
2021/08/02 06:19:56;;;;;;;3.03;2.07;;;;;;;;;;5046836;28;20190;-84
2021/08/02 06:22:23;;;;;;;3.47;2.50;;;;;;;;;;5039609;28;20471;-84
2021/08/02 06:24:49;;;;;;;3.58;2.58;;;;;;;;;;5035251;28;20232;-84
2021/08/02 06:27:15;;;;;;;2.40;2.00;;;;;;;;;;5034416;28;20210;-83
2021/08/02 06:29:41;;;;;;;3.87;2.33;;;;;;;;;;5037345;28;20551;-84
2021/08/02 06:32:07;;;;;;;2.60;2.40;;;;;;;;;;5046504;28;20474;-83
2021/08/02 06:34:33;;;;;;;3.05;2.10;;;;;;;;;;5027236;28;20178;-83
2021/08/02 06:36:59;;;;;;;3.50;2.40;;;;;;;;;;5042998;28;20189;-83
2021/08/02 06:39:25;;;;;;;3.30;2.50;;;;;;;;;;5048115;28;20186;-83
2021/08/02 06:41:51;;;;;;;2.80;2.40;;;;;;;;;;5045874;28;20436;-84
2021/08/02 06:44:17;;;;;;;2.50;2.30;;;;;;;;;;5043349;28;20445;-84
2021/08/02 06:46:43;;;;;;;3.33;2.65;;;;;;;;;;5043390;28;20447;-84
2021/08/02 06:49:09;;;;;;;6.65;2.80;;;;;;;;;;5031415;28;20206;-83
2021/08/02 06:51:35;;;;;;;3.75;2.33;;;;;;;;;;5042367;28;20257;-84
2021/08/02 06:54:01;;;;;;;2.60;2.40;;;;;;;;;;5044973;28;20182;-84
2021/08/02 06:56:27;;;;;;;3.90;2.85;;;;;;;;;;5041136;28;20429;-81
2021/08/02 06:58:53;;;;;;;3.63;2.50;;;;;;;;;;5047254;28;20189;-84
2021/08/02 07:01:19;;;;;;;2.80;2.60;;;;;;;;;;5043430;28;20440;-83
2021/08/02 07:03:45;;;;;;;3.75;2.65;;;;;;;;;;5045618;28;20459;-83
2021/08/02 07:06:11;;;;;;;5.03;2.70;;;;;;;;;;5038865;28;20198;-83
2021/08/02 07:08:38;;;;;;;2.83;2.50;;;;;;;;;;5036083;28;20198;-83
2021/08/02 07:11:04;;;;;;;4.75;2.55;;;;;;;;;;5047517;28;20440;-83
2021/08/02 07:13:30;;;;;;;4.47;2.95;;;;;;;;;;5028748;28;20186;-82
2021/08/02 07:15:59;;;;;;;2.70;2.47;;;;;;;;;;5033848;28;20422;-83
2021/08/02 07:18:26;;;;;;;3.88;2.45;;;;;;;;;;5040456;28;20472;-83
2021/08/02 07:20:52;;;;;;;3.25;2.70;;;;;;;;;;5046395;28;20272;-83
2021/08/02 07:23:18;;;;;;;5.40;2.83;;;;;;;;;;5043830;28;20967;-83
2021/08/02 07:25:45;;;;;;;6.93;3.22;;;;;;;;;;5028836;28;20512;-83
2021/08/02 07:28:11;;;;;;;6.05;3.60;;;;;;;;;;5030884;28;20202;-83
2021/08/02 07:30:37;;;;;;;4.40;2.85;;;;;;;;;;5044115;28;20186;-83
2021/08/02 07:33:03;;;;;;;4.20;3.28;;;;;;;;;;5044898;28;20190;-83
2021/08/02 07:35:29;;;;;;;2.73;2.47;;;;;;;;;;5043392;28;20177;-83
2021/08/02 07:37:55;;;;;;;3.97;3.13;;;;;;;;;;5045307;28;20900;-80
2021/08/02 07:40:21;;;;;;;3.33;2.50;;;;;;;;;;5043613;28;20181;-84
2021/08/02 07:42:47;;;;;;;3.63;3.30;;;;;;;;;;5043725;28;20451;-83
2021/08/02 07:45:13;;;;;;;4.10;3.03;;;;;;;;;;5043044;28;20201;-83
2021/08/02 07:47:40;;;;;;;3.40;2.70;;;;;;;;;;5046055;28;20206;-83
2021/08/02 07:50:06;;;;;;;4.57;2.53;;;;;;;;;;5045900;28;20692;-80
2021/08/02 07:52:32;;;;;;;4.00;3.20;;;;;;;;;;5028715;28;20174;-83
2021/08/02 07:54:59;;;;;;;6.80;3.93;;;;;;;;;;5032984;28;20175;-83
2021/08/02 07:57:25;;;;;;;4.78;2.65;;;;;;;;;;5043059;28;20438;-82
2021/08/02 07:59:51;;;;;;;4.25;3.25;;;;;;;;;;5040577;28;20184;-82
2021/08/02 08:02:17;;;;;;;2.97;2.58;;;;;;;;;;5044855;28;20188;-83
2021/08/02 08:04:43;;;;;;;4.57;3.23;;;;;;;;;;5044733;28;20179;-82
2021/08/02 08:07:09;;;;;;;5.70;3.00;;;;;;;;;;5029970;28;20427;-83
2021/08/02 08:09:35;;;;;;;6.18;4.05;;;;;;;;;;5033701;28;20434;-83
2021/08/02 08:12:01;;;;;;;3.40;2.88;;;;;;;;;;5033494;28;20282;-83
2021/08/02 08:14:27;;;;;;;4.90;3.07;;;;;;;;;;5032001;28;20178;-84
2021/08/02 08:16:54;;;;;;;3.90;3.17;;;;;;;;;;5029840;28;20473;-83
2021/08/02 08:19:20;;;;;;;5.75;3.50;;;;;;;;;;5043494;28;20481;-83
2021/08/02 08:21:46;;;;;;;4.60;3.23;;;;;;;;;;5031477;28;20667;-83
2021/08/02 08:24:12;;;;;;;3.97;3.30;;;;;;;;;;5040632;28;20462;-83
2021/08/02 08:26:38;;;;;;;4.43;3.50;;;;;;;;;;5041854;28;20188;-83
2021/08/02 08:29:05;;;;;;;3.88;2.60;;;;;;;;;;5026645;28;20537;-83
2021/08/02 08:31:31;;;;;;;4.38;3.28;;;;;;;;;;5040424;28;20175;-83
2021/08/02 08:33:57;;;;;;;3.67;3.33;;;;;;;;;;5046879;28;20188;-84
2021/08/02 08:36:23;;;;;;;2.72;2.50;;;;;;;;;;5042778;28;20457;-83
2021/08/02 08:38:49;;;;;;;6.18;2.80;;;;;;;;;;5046101;28;20262;-83
2021/08/02 08:41:20;;;;;;;5.50;3.43;;;;;;;;;;5044622;28;20188;-83
2021/08/02 08:43:46;;;;;;;5.32;3.10;;;;;;;;;;5027238;28;20425;-84
2021/08/02 08:46:12;;;;;;;4.03;3.30;;;;;;;;;;5043034;28;20516;-83
2021/08/02 08:48:38;;;;;;;3.63;3.20;;;;;;;;;;5036868;28;20232;-83
2021/08/02 08:51:04;;;;;;;4.00;2.60;;;;;;;;;;5031819;28;20452;-83
2021/08/02 08:53:32;;;;;;;4.50;2.50;;;;;;;;;;5034079;28;20432;-83
2021/08/02 08:55:58;;;;;;;4.88;2.85;;;;;;;;;;5044785;28;20188;-83
2021/08/02 08:58:24;;;;;;;3.40;2.95;;;;;;;;;;5027041;28;20193;-83
2021/08/02 09:00:59;;;;;;;4.70;2.90;;;;;;;;;;5046189;28;20255;-84
2021/08/02 09:03:25;;;;;;;4.20;2.60;;;;;;;;;;5043258;28;20450;-83
2021/08/02 09:06:00;;;;;;;4.27;3.10;;;;;;;;;;5042306;28;20466;-83
2021/08/02 09:08:26;;;;;;;2.78;2.30;;;;;;;;;;5042904;28;20459;-83
2021/08/02 09:10:56;;;;;;;3.23;2.60;;;;;;;;;;5042482;28;20174;-83
2021/08/02 09:13:28;;;;;;;2.73;2.47;;;;;;;;;;5042765;28;20422;-82
2021/08/02 09:15:56;;;;;;;2.90;2.25;;;;;;;;;;5053216;28;20408;-83
2021/08/02 09:18:23;;;;;;;3.13;2.77;;;;;;;;;;5054206;28;20224;-83
2021/08/02 09:20:59;;;;;;;3.10;2.33;;;;;;;;;;5043548;28;20571;-83
2021/08/02 09:23:25;;;;;;;3.00;2.60;;;;;;;;;;5045427;28;20402;-83
2021/08/02 09:25:52;;;;;;;2.63;2.10;;;;;;;;;;5043561;28;20423;-83
2021/08/02 09:28:24;;;;;;;3.13;2.60;;;;;;;;;;5041635;28;20430;-83
2021/08/02 09:31:01;;;;;;;3.80;3.40;;;;;;;;;;5042389;28;20407;-83
2021/08/02 09:33:32;;;;;;;3.27;2.70;;;;;;;;;;5037220;28;20412;-83
2021/08/02 09:36:02;;;;;;;3.80;2.80;;;;;;;;;;5036891;28;20479;-83
2021/08/02 09:38:28;;;;;;;3.20;3.00;;;;;;;;;;5041983;28;20931;-84
2021/08/02 09:40:55;;;;;;;3.00;2.70;;;;;;;;;;5028408;28;20436;-83
2021/08/02 09:43:22;;;;;;;3.10;2.80;;;;;;;;;;5042774;28;20418;-83
2021/08/02 09:45:50;;;;;;;3.33;3.03;;;;;;;;;;5044506;28;20495;-84
2021/08/02 09:48:18;;;;;;;4.07;3.23;;;;;;;;;;5042820;28;20474;-83
2021/08/02 09:50:44;;;;;;;3.27;2.97;;;;;;;;;;5044646;28;20468;-84
2021/08/02 09:53:17;;;;;;;3.00;2.60;;;;;;;;;;5045658;28;20442;-84
2021/08/02 09:55:44;;;;;;;3.80;3.20;;;;;;;;;;5040955;28;20395;-83
2021/08/02 09:58:20;;;;;;;3.73;3.30;;;;;;;;;;5045282;28;20414;-84
2021/08/02 10:00:47;;;;;;;3.17;2.87;;;;;;;;;;5046927;28;20417;-84
2021/08/02 10:03:16;;;;;;;2.77;2.57;;;;;;;;;;5047196;28;20871;-83
2021/08/02 10:05:42;;;;;;;4.17;2.90;;;;;;;;;;5044829;28;20415;-84
2021/08/02 10:08:08;;;;;;;2.77;2.53;;;;;;;;;;5033887;28;20433;-84
2021/08/02 10:10:38;;;;;;;3.20;2.90;;;;;;;;;;5044485;28;20510;-84
2021/08/02 10:13:04;;;;;;;6.63;3.37;;;;;;;;;;5035453;28;20417;-83
2021/08/02 10:15:30;;;;;;;3.33;3.03;;;;;;;;;;5042370;28;20437;-84
2021/08/02 10:18:04;;;;;;;2.47;2.27;;;;;;;;;;5047481;28;20457;-84
2021/08/02 10:20:31;;;;;;;3.00;2.80;;;;;;;;;;5042192;28;20404;-83
2021/08/02 10:22:58;;;;;;;3.23;2.90;;;;;;;;;;5046554;28;20455;-84
2021/08/02 10:25:35;;;;;;;2.83;2.63;;;;;;;;;;5049319;28;20387;-83
2021/08/02 10:28:08;;;;;;;4.10;2.90;;;;;;;;;;5046574;28;20464;-83
2021/08/02 10:30:34;;;;;;;2.80;2.60;;;;;;;;;;5045020;28;20495;-83
2021/08/02 10:33:00;;;;;;;3.30;3.00;;;;;;;;;;5048299;28;20475;-81
2021/08/02 10:35:34;;;;;;;3.47;3.03;;;;;;;;;;5047770;28;20519;-84
2021/08/02 10:38:01;;;;;;;3.43;2.77;;;;;;;;;;5046285;28;20506;-83
2021/08/02 10:40:27;;;;;;;3.97;3.13;;;;;;;;;;5044724;28;20416;-83
2021/08/02 10:42:53;;;;;;;2.87;2.60;;;;;;;;;;5054607;28;20428;-83
2021/08/02 10:45:32;;;;;;;2.20;2.10;;;;;;;;;;5068610;28;20428;-83
2021/08/02 10:47:59;;;;;;;2.83;2.63;;;;;;;;;;5033879;28;20483;-83
2021/08/02 10:50:26;;;;;;;3.53;2.70;;;;;;;;;;5033150;28;20520;-83
2021/08/02 10:52:53;;;;;;;3.33;3.03;;;;;;;;;;5029426;28;20426;-82
2021/08/02 10:55:20;;;;;;;2.77;2.57;;;;;;;;;;5039433;28;20478;-84
2021/08/02 10:57:56;;;;;;;4.77;3.00;;;;;;;;;;5041191;28;20414;-83
2021/08/02 11:00:22;;;;;;;2.93;2.73;;;;;;;;;;5038200;28;20419;-82
2021/08/02 11:02:49;;;;;;;3.00;2.80;;;;;;;;;;5034458;28;20414;-84
2021/08/02 11:05:15;;;;;;;3.33;3.00;;;;;;;;;;5034203;28;20526;-84
2021/08/02 11:07:41;;;;;;;3.50;2.97;;;;;;;;;;5026396;28;20461;-84
2021/08/02 11:10:07;;;;;;;3.40;3.10;;;;;;;;;;5044498;28;20393;-84
2021/08/02 11:12:42;;;;;;;2.67;2.40;;;;;;;;;;5043359;28;20420;-83
2021/08/02 11:15:08;;;;;;;3.30;2.77;;;;;;;;;;5046231;28;20407;-84
2021/08/02 11:17:34;;;;;;;3.13;2.83;;;;;;;;;;5044149;28;20446;-83
2021/08/02 11:20:01;;;;;;;2.73;2.53;;;;;;;;;;5030378;28;20406;-84
2021/08/02 11:22:27;;;;;;;2.80;2.60;;;;;;;;;;5043391;28;20409;-82
2021/08/02 11:24:53;;;;;;;3.80;3.10;;;;;;;;;;5058767;28;20532;-83
2021/08/02 11:27:20;;;;;;;3.37;3.00;;;;;;;;;;5043877;28;20498;-85
2021/08/02 11:29:47;;;;;;;2.50;2.30;;;;;;;;;;5041828;28;20408;-83
2021/08/02 11:32:13;;;;;;;3.00;2.80;;;;;;;;;;5032085;28;20435;-83
2021/08/02 11:34:51;;;;;;;2.77;2.10;;;;;;;;;;5043194;28;20399;-84
2021/08/02 11:37:20;;;;;;;2.93;2.73;;;;;;;;;;5044179;28;20477;-85
2021/08/02 11:39:47;;;;;;;2.63;2.43;;;;;;;;;;5045355;28;20554;-82
2021/08/02 11:42:17;;;;;;;3.93;2.70;;;;;;;;;;5046530;28;20416;-84
2021/08/02 11:44:43;;;;;;;3.00;2.50;;;;;;;;;;5046150;28;20414;-85
2021/08/02 11:47:11;;;;;;;2.70;2.50;;;;;;;;;;5042137;28;20422;-83
2021/08/02 11:49:41;;;;;;;2.47;2.27;;;;;;;;;;5026702;28;20397;-83
2021/08/02 11:52:08;;;;;;;3.00;2.43;;;;;;;;;;5031000;28;20397;-83
2021/08/02 11:54:34;;;;;;;2.70;2.50;;;;;;;;;;5044534;28;20437;-83
2021/08/02 11:57:00;;;;;;;2.67;2.47;;;;;;;;;;5036196;28;20449;-82
2021/08/02 11:59:30;;;;;;;3.60;2.60;;;;;;;;;;5032031;28;20448;-84
2021/08/02 12:01:57;;;;;;;4.00;2.40;;;;;;;;;;5045311;28;20421;-83
2021/08/02 12:04:24;;;;;;;2.47;2.27;;;;;;;;;;5043037;28;20401;-84
2021/08/02 12:06:55;;;;;;;2.67;2.47;;;;;;;;;;5043566;28;20431;-84
2021/08/02 12:09:37;;;;;;;3.00;2.67;;;;;;;;;;5045883;28;20475;-83
2021/08/02 12:12:04;;;;;;;2.70;2.50;;;;;;;;;;5043406;28;20450;-84
2021/08/02 12:14:30;;;;;;;3.93;2.40;;;;;;;;;;5045691;28;20487;-83
2021/08/02 12:17:14;;;;;;;2.40;2.17;;;;;;;;;;5030464;28;20436;-84
2021/08/02 12:19:48;;;;;;;2.60;2.40;;;;;;;;;;5033487;28;20420;-85
2021/08/02 12:22:15;;;;;;;4.87;3.00;;;;;;;;;;5028050;28;20492;-83
2021/08/02 12:24:48;;;;;;;2.77;2.57;;;;;;;;;;5031771;28;20491;-84
2021/08/02 12:27:16;;;;;;;3.13;2.80;;;;;;;;;;5038760;28;20446;-84
2021/08/02 12:29:42;;;;;;;3.40;2.70;;;;;;;;;;5043800;28;20428;-84
2021/08/02 12:32:08;;;;;;;2.70;2.50;;;;;;;;;;5046315;28;20482;-84
2021/08/02 12:34:34;;;;;;;3.43;3.13;;;;;;;;;;5042358;28;20396;-85
2021/08/02 12:37:00;;;;;;;2.60;2.40;;;;;;;;;;5031764;28;20488;-83
2021/08/02 12:39:29;;;;;;;3.63;2.80;;;;;;;;;;5033435;28;20946;-84
2021/08/02 12:41:56;;;;;;;3.97;2.47;;;;;;;;;;5034406;28;20893;-85
2021/08/02 12:44:22;;;;;;;4.07;3.00;;;;;;;;;;5032948;28;20434;-83
2021/08/02 12:46:48;;;;;;;3.77;2.80;;;;;;;;;;5043564;28;20439;-83
2021/08/02 12:49:14;;;;;;;2.80;2.57;;;;;;;;;;5037295;28;20448;-83
2021/08/02 12:51:40;;;;;;;3.23;2.40;;;;;;;;;;5034099;28;20447;-83
2021/08/02 12:54:06;;;;;;;2.47;2.27;;;;;;;;;;5033738;28;20440;-85
2021/08/02 12:56:32;;;;;;;2.97;2.23;;;;;;;;;;5045168;28;20870;-83
2021/08/02 12:58:58;;;;;;;2.50;2.30;;;;;;;;;;5042187;28;20443;-83
2021/08/02 13:01:24;;;;;;;3.43;2.20;;;;;;;;;;5028560;28;20412;-83
2021/08/02 13:03:50;;;;;;;2.30;2.10;;;;;;;;;;5042248;28;20971;-84
2021/08/02 13:06:18;;;;;;;2.33;2.00;;;;;;;;;;5037702;28;20416;-83
2021/08/02 13:08:44;;;;;;;3.53;2.80;;;;;;;;;;5033855;28;20439;-84
2021/08/02 13:11:10;;;;;;;2.27;2.00;;;;;;;;;;5030994;28;20433;-84
2021/08/02 13:13:36;;;;;;;3.03;2.60;;;;;;;;;;5041552;28;20407;-83
2021/08/02 13:16:02;;;;;;;3.50;3.10;;;;;;;;;;5045704;28;20400;-84
2021/08/02 13:18:28;;;;;;;2.67;2.47;;;;;;;;;;5035000;28;20448;-84
2021/08/02 13:20:55;;;;;;;2.10;1.90;;;;;;;;;;5035045;28;20450;-83
2021/08/02 13:28:35;;;;;;;4.13;2.40;;;;;;;;;;5023911;28;20517;-84
2021/08/02 13:31:01;;;;;;;2.53;2.13;;;;;;;;;;5046130;28;20385;-83
2021/08/02 13:33:27;;;;;;;2.80;2.50;;;;;;;;;;5039225;28;20599;-84
2021/08/02 13:35:53;;;;;;;4.33;3.00;;;;;;;;;;5037088;28;20422;-83
2021/08/02 13:38:19;;;;;;;2.93;2.40;;;;;;;;;;5034354;28;20934;-84
2021/08/02 13:40:45;;;;;;;2.40;2.20;;;;;;;;;;5030839;28;20458;-83
2021/08/02 13:43:11;;;;;;;4.83;2.40;;;;;;;;;;5049181;28;20429;-84
2021/08/02 13:45:38;;;;;;;3.10;2.40;;;;;;;;;;5045165;28;20561;-83
2021/08/02 13:48:04;;;;;;;2.50;2.30;;;;;;;;;;5044948;28;20515;-81
2021/08/02 13:50:30;;;;;;;6.77;3.90;;;;;;;;;;5045925;28;20441;-83
2021/08/02 13:52:56;;;;;;;2.90;2.50;;;;;;;;;;5032754;28;20506;-84
2021/08/02 13:55:22;;;;;;;3.33;2.70;;;;;;;;;;5047012;28;20413;-84
2021/08/02 13:57:48;;;;;;;2.47;2.27;;;;;;;;;;5047119;28;20444;-83
2021/08/02 14:00:15;;;;;;;4.03;2.80;;;;;;;;;;5040657;28;20515;-83
2021/08/02 14:02:41;;;;;;;2.50;2.10;;;;;;;;;;5038015;28;20590;-83
2021/08/02 14:05:08;;;;;;;2.40;1.90;;;;;;;;;;5047052;28;20414;-83
2021/08/02 14:07:34;;;;;;;2.50;1.90;;;;;;;;;;5029579;28;20435;-83
2021/08/02 14:10:00;;;;;;;2.37;1.70;;;;;;;;;;5040528;28;20407;-83
2021/08/02 14:12:33;;;;;;;2.30;1.80;;;;;;;;;;5048806;28;20442;-83
2021/08/02 14:15:02;;;;;;;5.63;2.60;;;;;;;;;;5044908;28;20442;-83
2021/08/02 14:17:29;;;;;;;3.17;2.37;;;;;;;;;;5046564;28;20475;-83
2021/08/02 14:19:57;;;;;;;2.13;1.90;;;;;;;;;;5045087;28;20471;-83
2021/08/02 14:22:23;;;;;;;2.67;2.30;;;;;;;;;;5045919;28;20395;-83
2021/08/02 14:24:50;;;;;;;2.30;1.80;;;;;;;;;;5045537;28;20439;-82
2021/08/02 14:27:16;;;;;;;1.97;1.77;;;;;;;;;;5040777;28;20416;-83
2021/08/02 14:29:42;;;;;;;1.60;1.50;;;;;;;;;;5034694;28;20930;-82
2021/08/02 14:32:10;;;;;;;3.00;2.27;;;;;;;;;;5028465;28;20409;-82
2021/08/02 14:34:36;;;;;;;2.53;1.97;;;;;;;;;;5028615;28;20446;-82
2021/08/02 14:37:03;;;;;;;5.37;2.23;;;;;;;;;;5042174;28;20426;-82
2021/08/02 14:39:30;;;;;;;3.40;2.43;;;;;;;;;;5042212;28;20420;-84
2021/08/02 14:42:01;;;;;;;2.93;2.07;;;;;;;;;;5041627;28;20424;-83
2021/08/02 14:44:28;;;;;;;1.93;1.73;;;;;;;;;;5031973;28;20411;-83
2021/08/02 14:46:55;;;;;;;2.13;1.80;;;;;;;;;;5046438;28;20503;-82
2021/08/02 14:49:21;;;;;;;2.07;1.87;;;;;;;;;;5046361;28;20530;-82